Hovedside
METAR-TAF:

METAR-TAF

Lufthavner :

Norrköping, Sverige

breddegrad: 58-35N, lengdegrad: 016-09E, høyde over havet: 34 m

Gjeldene værobservasjon

Denne rapporten ble laget for 40 minutter siden, klokken 09:50 UTC
Vind 16 kt fra Vest med vindkast opp mot 26 kt
Temperatur 15°C
Luftfuktighet 59%
Trykk 996 hPa
Sikt 10 km eller mer

METAR: ESSP 250950Z AUTO 26016G26KT 9999 BKN064/// 15/07 Q0996

Tid: 12:30 (10:30 UTC)


TAF: fraværende

Værobservasjoner og værvarsel for over 4000 flyplasser (METAR- og TAF-rapporter).

Tilgjengelige stasjoner er representert av de røde og gule prikkene på kartet.

Hold musepekeren over prikken for å se navnet på stasjonen.

Klikk så for å se værobservasjoner og -varsler.

For å forandre kartet kan du klikke på den grønne knappen med svart kryss for å zoome inn, på den grønne knappen med strek for å zoome ut, eller på de grønne pilene for å se tilstøtende kart.


METAR-TAF: